createdAt,value
2018-06-22T00:01:41.933Z,100592.00
2018-06-22T00:04:10.412Z,100594.16
2018-06-22T00:06:38.997Z,100591.94
2018-06-22T00:09:09.018Z,100599.30
2018-06-22T00:11:37.530Z,100598.80
2018-06-22T00:14:06.385Z,100607.08
2018-06-22T00:16:35.084Z,100600.48
2018-06-22T00:19:03.850Z,100598.27
2018-06-22T00:21:32.485Z,100601.37
2018-06-22T00:24:01.099Z,100585.56
2018-06-22T00:26:29.749Z,100588.26
2018-06-22T00:28:58.409Z,100587.36
2018-06-22T00:31:27.212Z,100586.88
2018-06-22T00:33:55.930Z,100581.59
2018-06-22T00:36:24.595Z,100586.02
2018-06-22T00:38:53.164Z,100582.97
2018-06-22T00:41:22.220Z,100576.45
2018-06-22T00:43:50.860Z,100581.39
2018-06-22T00:46:19.444Z,100574.85
2018-06-22T00:48:48.443Z,100576.58
2018-06-22T00:51:16.999Z,100570.42
2018-06-22T00:53:56.879Z,100574.80
2018-06-22T00:56:26.176Z,100576.11
2018-06-22T00:58:54.900Z,100567.78
2018-06-22T01:01:23.799Z,100570.91
2018-06-22T01:03:52.623Z,100570.55
2018-06-22T01:06:21.416Z,100571.11
2018-06-22T01:08:50.596Z,100558.51
2018-06-22T01:11:19.258Z,100570.03
2018-06-22T01:13:48.065Z,100562.67
2018-06-22T01:16:16.868Z,100564.03
2018-06-22T01:18:45.575Z,100559.77
2018-06-22T01:21:14.338Z,100560.72
2018-06-22T01:23:43.140Z,100554.67
2018-06-22T01:26:11.919Z,100557.36
2018-06-22T01:28:40.707Z,100553.90
2018-06-22T01:31:09.570Z,100558.78
2018-06-22T01:33:38.307Z,100550.94
2018-06-22T01:36:07.130Z,100550.05
2018-06-22T01:38:35.949Z,100555.84
2018-06-22T01:41:04.676Z,100557.17
2018-06-22T01:43:33.372Z,100561.12
2018-06-22T01:46:02.040Z,100559.37
2018-06-22T01:48:30.812Z,100557.21
2018-06-22T01:50:59.498Z,100558.53
2018-06-22T01:53:28.346Z,100555.48
2018-06-22T01:55:57.042Z,100560.78
2018-06-22T01:58:25.743Z,100553.31
2018-06-22T02:00:54.606Z,100555.94
2018-06-22T02:03:23.337Z,100560.27
2018-06-22T02:05:52.025Z,100561.53
2018-06-22T02:08:20.698Z,100558.84
2018-06-22T02:10:49.425Z,100556.58
2018-06-22T02:13:18.114Z,100553.88
2018-06-22T02:15:46.920Z,100556.88
2018-06-22T02:18:15.623Z,100558.56
2018-06-22T02:20:44.285Z,100557.18
2018-06-22T02:23:13.053Z,100559.30
2018-06-22T02:25:41.837Z,100557.92
2018-06-22T02:28:10.606Z,100555.75
2018-06-22T02:30:39.327Z,100551.32
2018-06-22T02:33:07.980Z,100553.53
2018-06-22T02:35:36.634Z,100553.05
2018-06-22T02:38:05.339Z,100552.63
2018-06-22T02:40:34.008Z,100541.61
2018-06-22T02:43:02.719Z,100538.99
2018-06-22T02:45:31.438Z,100540.26
2018-06-22T02:48:00.086Z,100536.77
2018-06-22T02:50:28.778Z,100535.45
2018-06-22T02:52:57.573Z,100538.57
2018-06-22T02:55:26.289Z,100538.98
2018-06-22T02:57:55.075Z,100536.03
2018-06-22T03:00:23.741Z,100528.63
2018-06-22T03:02:52.531Z,100527.42
2018-06-22T03:05:21.209Z,100531.89
2018-06-22T03:07:49.770Z,100524.06
2018-06-22T03:10:18.559Z,100529.86
2018-06-22T03:12:47.360Z,100535.19
2018-06-22T03:15:16.052Z,100531.24
2018-06-22T03:17:44.804Z,100539.56
2018-06-22T03:20:13.489Z,100533.86
2018-06-22T03:22:42.333Z,100534.28
2018-06-22T03:25:11.159Z,100537.81
2018-06-22T03:27:39.807Z,100532.50
2018-06-22T03:30:08.498Z,100539.03
2018-06-22T03:32:37.145Z,100532.86
2018-06-22T03:35:05.936Z,100536.34
2018-06-22T03:37:34.625Z,100537.66
2018-06-22T03:40:03.335Z,100533.71
2018-06-22T03:42:31.995Z,100530.17
2018-06-22T03:45:01.631Z,100534.55
2018-06-22T03:47:30.301Z,100538.44
2018-06-22T03:49:59.084Z,100534.48
2018-06-22T03:52:27.748Z,100534.85
2018-06-22T03:54:56.533Z,100535.73
2018-06-22T03:57:25.237Z,100532.58
2018-06-22T03:59:54.027Z,100529.45
2018-06-22T04:02:22.683Z,100532.92
2018-06-22T04:04:51.461Z,100519.67
2018-06-22T04:07:20.402Z,100532.36
2018-06-22T04:09:49.417Z,100521.38
2018-06-22T04:12:18.352Z,100520.48
2018-06-22T04:14:47.552Z,100513.41
2018-06-22T04:17:16.322Z,100513.88
2018-06-22T04:19:45.498Z,100516.88
2018-06-22T04:22:15.028Z,100516.83
2018-06-22T04:24:43.924Z,100507.58
2018-06-22T04:27:13.178Z,100509.36
2018-06-22T04:29:42.184Z,100508.90
2018-06-22T04:32:10.965Z,100504.94
2018-06-22T04:34:39.827Z,100510.58
2018-06-22T04:37:09.220Z,100510.08
2018-06-22T04:39:37.972Z,100507.37
2018-06-22T04:42:06.973Z,100506.45
2018-06-22T04:44:36.069Z,100513.81
2018-06-22T04:47:04.913Z,100512.44
2018-06-22T04:49:35.171Z,100521.16
2018-06-22T04:52:04.449Z,100526.84
2018-06-22T04:54:33.332Z,100516.25
2018-06-22T04:57:02.243Z,100511.39
2018-06-22T04:59:31.200Z,100502.63
2018-06-22T05:02:00.671Z,100509.17
2018-06-22T05:04:29.609Z,100513.52
2018-06-22T05:06:58.825Z,100513.44
2018-06-22T05:09:29.836Z,100526.62
2018-06-22T05:11:58.727Z,100521.36
2018-06-22T05:14:27.452Z,100531.44
2018-06-22T05:16:56.054Z,100535.39
2018-06-22T05:19:24.660Z,100537.67
2018-06-22T05:21:53.704Z,100542.95
2018-06-22T05:24:22.842Z,100546.94
2018-06-22T05:26:51.916Z,100549.51
2018-06-22T05:29:20.821Z,100550.00
2018-06-22T05:31:49.593Z,100542.53
2018-06-22T05:34:18.444Z,100525.37
2018-06-22T05:36:47.812Z,100542.53
2018-06-22T05:39:17.450Z,100542.16
2018-06-22T05:41:46.521Z,100541.30
2018-06-22T05:44:15.524Z,100542.08
2018-06-22T05:46:44.537Z,100537.12
2018-06-22T05:49:13.407Z,100546.19
2018-06-22T05:51:42.215Z,100548.70
2018-06-22T05:54:11.088Z,100550.98
2018-06-22T05:56:39.912Z,100547.86
2018-06-22T05:59:08.889Z,100547.38
2018-06-22T06:01:37.753Z,100553.64
2018-06-22T06:04:08.807Z,100550.98
2018-06-22T06:06:37.695Z,100557.11
2018-06-22T06:09:08.352Z,100554.88
2018-06-22T06:11:37.784Z,100552.06
2018-06-22T06:14:07.274Z,100552.19
2018-06-22T06:16:36.680Z,100559.47
2018-06-22T06:19:06.213Z,100559.77
2018-06-22T06:21:35.908Z,100553.91
2018-06-22T06:24:05.030Z,100557.41
2018-06-22T06:26:34.215Z,100556.97
2018-06-22T06:29:03.342Z,100557.85
2018-06-22T06:31:33.211Z,100560.86
2018-06-22T06:34:02.210Z,100557.80
2018-06-22T06:36:31.708Z,100561.77
2018-06-22T06:39:00.543Z,100566.98
2018-06-22T06:41:29.701Z,100563.83
2018-06-22T06:43:58.455Z,100571.67
2018-06-22T06:46:27.162Z,100564.44
2018-06-22T06:48:56.196Z,100566.75
2018-06-22T06:51:24.882Z,100568.53
2018-06-22T06:53:53.943Z,100561.44
2018-06-22T06:56:22.922Z,100561.84
2018-06-22T06:58:51.558Z,100563.49
2018-06-22T07:01:20.280Z,100561.75
2018-06-22T07:03:49.097Z,100568.81
2018-06-22T07:06:17.782Z,100568.81
2018-06-22T07:08:46.539Z,100568.78
2018-06-22T07:11:15.326Z,100572.34
2018-06-22T07:13:44.097Z,100569.70
2018-06-22T07:16:12.801Z,100578.13
2018-06-22T07:18:41.476Z,100585.36
2018-06-22T07:21:10.059Z,100582.22
2018-06-22T07:23:38.852Z,100585.90
2018-06-22T07:26:07.512Z,100595.19
2018-06-22T07:28:36.123Z,100596.98
2018-06-22T07:31:04.792Z,100597.39
2018-06-22T07:33:33.489Z,100600.06
2018-06-22T07:36:02.153Z,100603.98
2018-06-22T07:38:30.801Z,100611.02
2018-06-22T07:40:59.437Z,100602.21
2018-06-22T07:43:28.096Z,100610.55
2018-06-22T07:45:56.799Z,100614.98
2018-06-22T07:48:25.443Z,100616.92
2018-06-22T07:50:54.167Z,100623.61
2018-06-22T07:53:22.871Z,100626.34
2018-06-22T07:55:51.589Z,100629.36
2018-06-22T07:58:20.265Z,100631.00
2018-06-22T08:00:48.898Z,100627.84
2018-06-22T08:03:17.436Z,100633.42
2018-06-22T08:05:46.122Z,100643.00
2018-06-22T08:08:14.690Z,100641.30
2018-06-22T08:10:43.315Z,100649.22
2018-06-22T08:13:11.847Z,100652.03
2018-06-22T08:15:40.695Z,100646.33
2018-06-22T08:18:09.417Z,100648.48
2018-06-22T08:20:38.852Z,100647.56
2018-06-22T08:23:07.460Z,100654.11
2018-06-22T08:25:36.214Z,100658.03
2018-06-22T08:28:04.934Z,100663.23
2018-06-22T08:30:33.625Z,100664.16
2018-06-22T08:33:02.213Z,100668.65
2018-06-22T08:35:30.904Z,100675.38
2018-06-22T08:38:00.354Z,100682.60
2018-06-22T08:40:29.260Z,100682.23
2018-06-22T08:42:58.791Z,100669.75
2018-06-22T08:45:27.540Z,100700.05
2018-06-22T08:47:56.324Z,100676.14
2018-06-22T08:50:25.528Z,100680.25
2018-06-22T08:52:54.676Z,100682.45
2018-06-22T08:55:23.844Z,100683.19
2018-06-22T08:57:53.425Z,100683.47
2018-06-22T09:00:22.443Z,100678.56
2018-06-22T09:02:51.355Z,100674.87
2018-06-22T09:05:20.215Z,100673.03
2018-06-22T09:07:49.172Z,100677.14
2018-06-22T09:10:18.301Z,100673.58
2018-06-22T09:12:47.375Z,100677.70
2018-06-22T09:15:16.361Z,100675.30
2018-06-22T09:17:45.825Z,100666.08
2018-06-22T09:20:19.115Z,100671.18
2018-06-22T09:22:47.934Z,100678.06
2018-06-22T09:25:19.753Z,100684.63
2018-06-22T09:27:48.581Z,100685.02
2018-06-22T09:30:17.492Z,100692.04
2018-06-22T09:32:46.254Z,100680.06
2018-06-22T09:35:15.070Z,100681.45
2018-06-22T09:37:43.966Z,100686.34
2018-06-22T09:40:12.704Z,100695.56
2018-06-22T09:42:41.529Z,100693.69
2018-06-22T09:45:10.375Z,100691.64
2018-06-22T09:47:39.151Z,100690.42
2018-06-22T09:50:07.874Z,100690.41
2018-06-22T09:52:36.924Z,100686.83
2018-06-22T09:55:05.987Z,100687.48
2018-06-22T09:57:34.794Z,100684.95
2018-06-22T10:00:03.686Z,100683.47
2018-06-22T10:02:32.615Z,100690.08
2018-06-22T10:05:01.709Z,100689.27
2018-06-22T10:07:30.882Z,100689.48
2018-06-22T10:09:59.642Z,100687.06
2018-06-22T10:12:28.433Z,100692.29
2018-06-22T10:14:57.343Z,100693.84
2018-06-22T10:17:26.518Z,100691.66
2018-06-22T10:19:55.294Z,100673.17
2018-06-22T10:22:24.370Z,100688.52
2018-06-22T10:24:53.118Z,100683.91
2018-06-22T10:27:21.997Z,100680.17
2018-06-22T10:29:50.740Z,100679.11
2018-06-22T10:32:19.617Z,100692.72
2018-06-22T10:34:48.503Z,100686.33
2018-06-22T10:37:17.297Z,100695.16
2018-06-22T10:39:46.020Z,100689.33
2018-06-22T10:42:14.784Z,100689.08
2018-06-22T10:44:43.530Z,100700.69
2018-06-22T10:47:12.278Z,100703.09
2018-06-22T10:49:41.330Z,100701.21
2018-06-22T10:52:10.289Z,100701.50
2018-06-22T10:54:39.451Z,100705.28
2018-06-22T10:57:08.420Z,100710.22
2018-06-22T10:59:37.512Z,100705.98
2018-06-22T11:02:06.606Z,100698.80
2018-06-22T11:04:35.534Z,100702.45
2018-06-22T11:07:05.219Z,100694.00
2018-06-22T11:09:34.100Z,100698.70
2018-06-22T11:12:03.113Z,100696.84
2018-06-22T11:14:32.136Z,100693.62
2018-06-22T11:17:01.392Z,100696.22
2018-06-22T11:19:30.221Z,100688.30
2018-06-22T11:21:59.030Z,100700.27
2018-06-22T11:24:28.410Z,100709.84
2018-06-22T11:26:57.644Z,100712.35
2018-06-22T11:29:26.518Z,100708.20
2018-06-22T11:31:56.177Z,100707.75
2018-06-22T11:34:25.452Z,100711.47
2018-06-22T11:36:54.640Z,100703.72
2018-06-22T11:39:23.716Z,100702.82
2018-06-22T11:41:52.711Z,100703.13
2018-06-22T11:44:21.695Z,100705.16
2018-06-22T11:46:50.524Z,100700.72
2018-06-22T11:49:19.694Z,100705.06
2018-06-22T11:51:48.637Z,100696.71
2018-06-22T11:54:17.850Z,100695.65
2018-06-22T11:56:47.351Z,100704.53
2018-06-22T11:59:16.556Z,100692.86
2018-06-22T12:01:45.864Z,100700.52
2018-06-22T12:04:15.081Z,100698.50
2018-06-22T12:06:44.072Z,100705.45
2018-06-22T12:09:13.938Z,100708.72
2018-06-22T12:11:43.779Z,100700.11
2018-06-22T12:14:12.553Z,100694.03
2018-06-22T12:16:41.169Z,100695.58
2018-06-22T12:19:09.951Z,100686.45
2018-06-22T12:21:38.622Z,100682.30
2018-06-22T12:24:38.177Z,100685.22
2018-06-22T12:27:09.309Z,100691.72
2018-06-22T12:30:13.037Z,100695.33
2018-06-22T12:32:48.605Z,100701.42
2018-06-22T12:35:21.225Z,100700.55
2018-06-22T12:37:50.174Z,100697.02
2018-06-22T12:40:19.041Z,100698.25
2018-06-22T12:42:56.683Z,100691.03
2018-06-22T12:46:05.157Z,100703.00
2018-06-22T12:48:37.726Z,100706.16
2018-06-22T12:51:15.741Z,100702.69
2018-06-22T12:53:54.217Z,100702.11
2018-06-22T12:56:23.373Z,100700.97
2018-06-22T12:59:10.813Z,100707.55
2018-06-22T13:05:32.354Z,100702.14
2018-06-22T13:08:12.776Z,100694.52
2018-06-22T13:10:48.069Z,100696.83
2018-06-22T13:13:22.080Z,100691.98
2018-06-22T13:15:57.204Z,100690.97
2018-06-22T13:18:35.712Z,100688.90
2018-06-22T13:21:10.705Z,100678.91
2018-06-22T13:23:39.828Z,100690.55
2018-06-22T13:26:08.487Z,100692.51
2018-06-22T13:28:43.597Z,100696.87
2018-06-22T13:31:14.213Z,100698.44
2018-06-22T13:33:59.597Z,100695.95
2018-06-22T13:36:44.074Z,100700.44
2018-06-22T13:39:30.944Z,100702.89
2018-06-22T13:42:03.904Z,100707.80
2018-06-22T13:44:33.018Z,100705.64
2018-06-22T13:47:01.720Z,100706.33
2018-06-22T13:49:30.541Z,100702.17
2018-06-22T13:52:00.262Z,100707.06
2018-06-22T13:54:29.288Z,100704.70
2018-06-22T13:56:58.625Z,100706.66
2018-06-22T14:02:07.014Z,100709.90
2018-06-22T14:04:42.040Z,100711.05
2018-06-22T14:07:10.872Z,100716.64
2018-06-22T14:09:39.661Z,100718.14
2018-06-22T14:12:08.464Z,100718.75
2018-06-22T14:14:37.048Z,100718.08
2018-06-22T14:17:05.708Z,100723.08
2018-06-22T14:19:34.323Z,100718.65
2018-06-22T14:22:03.131Z,100720.65
2018-06-22T14:24:31.796Z,100713.66
2018-06-22T14:27:00.531Z,100709.64
2018-06-22T14:29:30.360Z,100714.08
2018-06-22T14:31:59.028Z,100712.56
2018-06-22T14:34:27.648Z,100707.55
2018-06-22T14:36:56.348Z,100713.69
2018-06-22T14:39:25.275Z,100701.91
2018-06-22T14:41:54.109Z,100703.55
2018-06-22T14:44:23.016Z,100701.22
2018-06-22T14:46:51.798Z,100708.23
2018-06-22T14:49:20.638Z,100705.67
2018-06-22T14:51:53.359Z,100702.55
2018-06-22T14:54:27.474Z,100705.41
2018-06-22T14:57:01.406Z,100711.13
2018-06-22T14:59:35.435Z,100713.84
2018-06-22T15:02:09.244Z,100721.58
2018-06-22T15:04:43.102Z,100714.47
2018-06-22T15:07:17.000Z,100718.95
2018-06-22T15:09:46.246Z,100713.19
2018-06-22T15:12:15.138Z,100719.70
2018-06-22T15:14:43.770Z,100724.56
2018-06-22T15:17:13.377Z,100710.97
2018-06-22T15:19:43.877Z,100722.55
2018-06-22T15:22:13.625Z,100722.83
2018-06-22T15:24:45.169Z,100719.30
2018-06-22T15:27:15.123Z,100719.05
2018-06-22T15:29:44.031Z,100713.55
2018-06-22T15:32:12.747Z,100726.95
2018-06-22T15:34:46.716Z,100712.14
2018-06-22T15:37:20.611Z,100723.27
2018-06-22T15:39:55.148Z,100708.96
2018-06-22T15:42:28.928Z,100715.78
2018-06-22T15:45:02.784Z,100715.99
2018-06-22T15:47:36.472Z,100727.79
2018-06-22T15:50:10.476Z,100728.72
2018-06-22T15:52:44.320Z,100727.14
2018-06-22T15:55:16.474Z,100722.27
2018-06-22T15:57:46.918Z,100718.77
2018-06-22T16:05:57.058Z,100721.15
2018-06-22T16:08:25.835Z,100724.84
2018-06-22T16:10:54.616Z,100725.24
2018-06-22T16:13:23.477Z,100725.44
2018-06-22T16:15:57.527Z,100725.16
2018-06-22T16:18:31.468Z,100726.08
2018-06-22T16:21:05.273Z,100725.73
2018-06-22T16:23:39.185Z,100723.63
2018-06-22T16:26:13.052Z,100729.05
2018-06-22T16:28:41.977Z,100729.15
2018-06-22T16:31:10.731Z,100731.88
2018-06-22T16:33:43.626Z,100734.86
2018-06-22T16:36:12.414Z,100737.39
2018-06-22T16:38:41.194Z,100746.63
2018-06-22T16:41:10.028Z,100744.30
2018-06-22T16:43:39.255Z,100746.74
2018-06-22T16:46:08.010Z,100752.20
2018-06-22T16:48:36.623Z,100750.64
2018-06-22T16:51:05.290Z,100750.24
2018-06-22T16:53:34.209Z,100747.45
2018-06-22T16:56:02.915Z,100746.48
2018-06-22T16:58:36.937Z,100754.16
2018-06-22T17:01:06.498Z,100752.53
2018-06-22T17:03:35.212Z,100750.89
2018-06-22T17:06:04.019Z,100751.73
2018-06-22T17:08:37.973Z,100753.56
2018-06-22T17:11:11.834Z,100754.44
2018-06-22T17:13:45.733Z,100752.58
2018-06-22T17:16:19.630Z,100760.00
2018-06-22T17:18:55.287Z,100756.00
2018-06-22T17:21:24.263Z,100752.89
2018-06-22T17:23:53.479Z,100761.38
2018-06-22T17:26:22.996Z,100754.44
2018-06-22T17:28:51.725Z,100762.66
2018-06-22T17:31:20.724Z,100761.00
2018-06-22T17:33:49.978Z,100762.37
2018-06-22T17:36:19.112Z,100763.27
2018-06-22T17:38:48.211Z,100765.66
2018-06-22T17:41:18.343Z,100765.79
2018-06-22T17:43:47.060Z,100758.33
2018-06-22T17:46:16.507Z,100767.30
2018-06-22T17:48:45.283Z,100762.27
2018-06-22T17:51:14.140Z,100762.08
2018-06-22T17:53:42.852Z,100763.74
2018-06-22T17:56:16.198Z,100769.71
2018-06-22T17:58:49.005Z,100769.55
2018-06-22T18:01:22.960Z,100774.34
2018-06-22T18:03:57.001Z,100772.41
2018-06-22T18:06:31.771Z,100775.63
2018-06-22T18:09:00.659Z,100780.66
2018-06-22T18:11:34.598Z,100774.32
2018-06-22T18:14:03.986Z,100778.55
2018-06-22T18:16:32.930Z,100775.30
2018-06-22T18:19:04.316Z,100781.30
2018-06-22T18:21:33.142Z,100787.02
2018-06-22T18:24:01.939Z,100790.44
2018-06-22T18:26:30.748Z,100791.14
2018-06-22T18:28:59.639Z,100791.75
2018-06-22T18:31:28.379Z,100790.53
2018-06-22T18:33:57.477Z,100799.45
2018-06-22T18:36:26.615Z,100794.66
2018-06-22T18:38:55.867Z,100792.06
2018-06-22T18:41:25.009Z,100795.72
2018-06-22T18:43:59.827Z,100798.92
2018-06-22T18:46:29.953Z,100806.95
2018-06-22T18:48:58.920Z,100808.36
2018-06-22T18:51:28.188Z,100809.68
2018-06-22T18:54:01.973Z,100814.62
2018-06-22T18:56:36.225Z,100819.15
2018-06-22T18:59:09.981Z,100820.33
2018-06-22T19:01:44.006Z,100824.09
2018-06-22T19:04:13.074Z,100822.11
2018-06-22T19:06:42.013Z,100836.49
2018-06-22T19:09:15.350Z,100824.80
2018-06-22T19:11:47.978Z,100830.83
2018-06-22T19:14:16.694Z,100826.26
2018-06-22T19:16:45.618Z,100832.25
2018-06-22T19:19:14.445Z,100831.62
2018-06-22T19:21:43.212Z,100835.83
2018-06-22T19:24:12.018Z,100840.86
2018-06-22T19:26:40.860Z,100839.72
2018-06-22T19:29:09.574Z,100845.63
2018-06-22T19:31:38.338Z,100844.47
2018-06-22T19:34:07.427Z,100845.06
2018-06-22T19:39:03.929Z,100848.45
2018-06-22T19:41:37.705Z,100854.32
2018-06-22T19:44:11.584Z,100853.95
2018-06-22T19:46:45.624Z,100856.26
2018-06-22T19:49:19.393Z,100863.38
2018-06-22T19:51:53.221Z,100863.40
2018-06-22T19:54:21.945Z,100869.11
2018-06-22T19:56:50.726Z,100863.80
2018-06-22T19:59:19.472Z,100869.48
2018-06-22T20:01:48.211Z,100869.91
2018-06-22T20:04:17.501Z,100872.97
2018-06-22T20:06:46.175Z,100870.71
2018-06-22T20:09:14.872Z,100879.08
2018-06-22T20:11:43.655Z,100872.87
2018-06-22T20:14:12.863Z,100878.11
2018-06-22T20:16:41.623Z,100875.10
2018-06-22T20:19:10.319Z,100876.87
2018-06-22T20:21:39.984Z,100872.91
2018-06-22T20:24:08.604Z,100873.41
2018-06-22T20:26:37.507Z,100874.39
2018-06-22T20:29:06.330Z,100877.14
2018-06-22T20:31:41.358Z,100879.02
2018-06-22T20:34:15.161Z,100878.64
2018-06-22T20:36:49.550Z,100884.50
2018-06-22T20:39:23.910Z,100882.45
2018-06-22T20:41:57.674Z,100890.09
2018-06-22T20:44:31.561Z,100895.08
2018-06-22T20:47:05.383Z,100891.66
2018-06-22T20:49:39.183Z,100890.93
2018-06-22T20:52:07.820Z,100897.63
2018-06-22T20:54:36.495Z,100899.11
2018-06-22T20:57:05.235Z,100902.73
2018-06-22T20:59:33.846Z,100896.70
2018-06-22T21:02:02.558Z,100900.70
2018-06-22T21:04:31.309Z,100902.91
2018-06-22T21:06:59.902Z,100902.98
2018-06-22T21:09:28.645Z,100903.91
2018-06-22T21:11:57.270Z,100906.13
2018-06-22T21:14:26.107Z,100897.77
2018-06-22T21:16:54.794Z,100906.97
2018-06-22T21:19:23.493Z,100910.94
2018-06-22T21:21:57.219Z,100910.91
2018-06-22T21:24:25.965Z,100914.82
2018-06-22T21:26:54.679Z,100909.03
2018-06-22T21:29:28.536Z,100908.06
2018-06-22T21:32:02.225Z,100914.20
2018-06-22T21:34:33.827Z,100916.41
2018-06-22T21:37:07.383Z,100913.70
2018-06-22T21:39:36.034Z,100905.75
2018-06-22T21:42:04.700Z,100914.56
2018-06-22T21:44:33.342Z,100913.68
2018-06-22T21:47:02.096Z,100917.22
2018-06-22T21:49:30.622Z,100911.47
2018-06-22T21:51:59.223Z,100913.66
2018-06-22T21:54:27.832Z,100916.73
2018-06-22T21:56:56.476Z,100918.41
2018-06-22T21:59:25.053Z,100925.41
2018-06-22T22:01:54.049Z,100921.89
2018-06-22T22:04:22.640Z,100925.44
2018-06-22T22:06:51.118Z,100918.89
2018-06-22T22:09:19.777Z,100923.38
2018-06-22T22:11:55.451Z,100925.73
2018-06-22T22:14:25.458Z,100926.79
2018-06-22T22:16:54.043Z,100926.52
2018-06-22T22:19:22.709Z,100932.36
2018-06-22T22:21:51.339Z,100934.25
2018-06-22T22:24:19.890Z,100935.75
2018-06-22T22:26:48.528Z,100936.25
2018-06-22T22:29:17.211Z,100928.02
2018-06-22T22:31:45.882Z,100929.84
2018-06-22T22:34:14.520Z,100930.34
2018-06-22T22:36:43.285Z,100937.41
2018-06-22T22:39:11.850Z,100934.30
2018-06-22T22:41:40.796Z,100932.53
2018-06-22T22:44:09.827Z,100925.94
2018-06-22T22:46:38.933Z,100927.26
2018-06-22T22:49:07.672Z,100927.73
2018-06-22T22:51:36.508Z,100932.13
2018-06-22T22:54:05.141Z,100925.95
2018-06-22T22:56:33.775Z,100921.98
2018-06-22T22:59:02.367Z,100920.23
2018-06-22T23:01:30.984Z,100921.97
2018-06-22T23:03:59.644Z,100920.17
2018-06-22T23:06:28.196Z,100919.70
2018-06-22T23:08:56.817Z,100911.32
2018-06-22T23:11:25.433Z,100911.74
2018-06-22T23:13:53.982Z,100909.09
2018-06-22T23:16:22.662Z,100909.52
2018-06-22T23:18:51.447Z,100916.98
2018-06-22T23:21:20.040Z,100921.36
2018-06-22T23:23:48.623Z,100919.13
2018-06-22T23:26:17.880Z,100916.91
2018-06-22T23:28:46.604Z,100913.36
2018-06-22T23:31:15.191Z,100908.48
2018-06-22T23:33:43.719Z,100912.88
2018-06-22T23:36:12.297Z,100906.25
2018-06-22T23:38:40.920Z,100909.31
2018-06-22T23:41:09.756Z,100907.09
2018-06-22T23:43:38.395Z,100914.59
2018-06-22T23:46:06.964Z,100910.16
2018-06-22T23:48:35.559Z,100908.83
2018-06-22T23:51:04.067Z,100903.05
2018-06-22T23:53:32.714Z,100891.16
2018-06-22T23:56:01.325Z,100896.02
2018-06-22T23:58:29.994Z,100896.45
